Flight Track Log - Related Links

Times and Time Zones

All times are in EDT time to prevent confusion due to time zone crossing. See the UAL4498 flight status page for this flight to view local times or setup timezone preferences in your user account.

Time Position Orientation Groundspeed Altitude Reporting Facility
EDT Latitude Longitude Course Direction KTS MPH feet Rate Location/Type
Thu 06:03:00 PM 30.3654 -95.5585 334° Northwest  Level FlightAware Approximate
Thu 06:04:00 PM 30.4621 -95.6122 334° Northwest  Level FlightAware Approximate
Thu 06:05:00 PM 30.5599 -95.6633 337° Northwest  Level FlightAware Approximate
Thu 06:06:00 PM 30.6584 -95.7125 337° Northwest  Level FlightAware Approximate
Thu 06:07:00 PM 30.7566 -95.7626 335° Northwest  Level FlightAware Approximate
Thu 06:08:00 PM 30.8537 -95.8156 335° Northwest  Level FlightAware Approximate
Thu 06:09:00 PM 30.9508 -95.8686 335° Northwest  Level FlightAware Approximate
Thu 06:10:00 PM 31.0480 -95.9216 335° Northwest  Level FlightAware Approximate
Thu 06:11:00 PM 31.1444 -95.9701 354° North  Level FlightAware Approximate
Thu 06:12:00 PM 31.2509 -95.9838 337° Northwest  Level FlightAware Approximate
Thu 06:13:00 PM 31.3498 -96.0202 350° North  Level FlightAware Approximate
Thu 06:14:00 PM 31.4553 -96.0428 350° North  Level FlightAware Approximate
Thu 06:15:00 PM 31.5608 -96.0654 350° North  Level FlightAware Approximate
Thu 06:16:00 PM 31.6660 -96.0899 350° North  Level FlightAware Approximate
Thu 06:17:00 PM 31.7717 -96.1110 350° North  Level FlightAware Approximate
Thu 06:18:00 PM 31.8772 -96.1338 349° North  Level FlightAware Approximate
Thu 06:19:00 PM 31.9822 -96.1592 346° North  Level FlightAware Approximate
Thu 06:20:00 PM 32.0864 -96.1890 346° North  Level FlightAware Approximate
Thu 06:21:00 PM 32.1908 -96.2167 North  Level FlightAware Approximate
Thu 06:22:00 PM 32.2981 -96.2167 North  Level FlightAware Approximate
Thu 06:23:00 PM 32.4053 -96.2167 North  Level FlightAware Approximate
Thu 06:24:00 PM 32.5126 -96.2167 North  Level FlightAware Approximate
Thu 06:25:00 PM 32.6198 -96.2167 North  Level FlightAware Approximate
Thu 06:26:00 PM 32.7271 -96.2167 North  Level FlightAware Approximate
Thu 06:27:00 PM 32.8343 -96.2167 North  Level FlightAware Approximate
Thu 06:28:00 PM 32.9415 -96.2167 North  Level FlightAware Approximate
Thu 06:29:00 PM 33.0488 -96.2167 North  Level FlightAware Approximate
Thu 06:30:00 PM 33.1560 -96.2167 North  Level FlightAware Approximate
Thu 06:31:00 PM 33.2632 -96.2198 358° North  Level FlightAware Approximate
Thu 06:32:00 PM 33.3704 -96.2252 358° North  Level FlightAware Approximate
Thu 06:33:00 PM 33.4775 -96.2305 358° North  Level FlightAware Approximate
Thu 06:34:00 PM 33.5842 -96.2246 North  Level FlightAware Approximate
Thu 06:35:00 PM 33.6903 -96.2064 North  Level FlightAware Approximate
Thu 06:36:00 PM 33.7965 -96.1881 North  Level FlightAware Approximate
Thu 06:37:00 PM 33.9026 -96.1697 North  Level FlightAware Approximate
Thu 06:38:00 PM 34.0088 -96.1514 North  Level FlightAware Approximate
Thu 06:39:00 PM 34.1150 -96.1334 North  Level FlightAware Approximate
Thu 06:40:00 PM 34.2212 -96.1154 North  Level FlightAware Approximate
Thu 06:41:00 PM 34.3274 -96.0974 North  Level FlightAware Approximate
Thu 06:42:00 PM 34.4336 -96.0794 North  Level FlightAware Approximate
Thu 06:43:00 PM 34.5398 -96.0612 North  Level FlightAware Approximate
Thu 06:44:00 PM 34.6460 -96.0431 North  Level FlightAware Approximate
Thu 06:45:00 PM 34.7522 -96.0249 North  Level FlightAware Approximate
Thu 06:46:00 PM 34.8584 -96.0065 North  Level FlightAware Approximate
Thu 06:47:00 PM 34.9645 -95.9880 North  Level FlightAware Approximate
Thu 06:48:00 PM 35.0707 -95.9694 North  Level FlightAware Approximate
Thu 06:49:00 PM 35.1768 -95.9508 North  Level FlightAware Approximate
Thu 06:50:00 PM 35.2830 -95.9321 North  Level FlightAware Approximate
Thu 06:51:00 PM 35.3891 -95.9134 North  Level FlightAware Approximate
Thu 06:52:00 PM 35.4953 -95.8946 North  Level FlightAware Approximate
Thu 06:53:00 PM 35.6014 -95.8758 North  Level FlightAware Approximate
Thu 06:54:00 PM 35.7076 -95.8570 North  Level FlightAware Approximate
Thu 06:55:00 PM 35.8137 -95.8381 North  Level FlightAware Approximate
Thu 06:56:00 PM 35.9198 -95.8191 North  Level FlightAware Approximate
Thu 06:57:00 PM 36.0264 -95.8043 North  Level FlightAware Approximate
Thu 06:58:00 PM 36.1330 -95.7901 North  Level FlightAware Approximate
Thu 06:59:00 PM 36.2397 -95.7759 North  Level FlightAware Approximate
Thu 07:00:00 PM 36.3463 -95.7618 North  Level FlightAware Approximate
Thu 07:01:00 PM 36.4529 -95.7477 North  Level FlightAware Approximate
Thu 07:02:00 PM 36.5596 -95.7336 North  Level FlightAware Approximate
Thu 07:03:00 PM 36.6662 -95.7194 North  Level FlightAware Approximate
Thu 07:04:00 PM 36.7728 -95.7052 North  Level FlightAware Approximate
Thu 07:05:00 PM 36.8795 -95.6909 North  Level FlightAware Approximate
Thu 07:06:00 PM 36.9861 -95.6766 North  Level FlightAware Approximate
Thu 07:07:00 PM 37.0927 -95.6622 North  Level FlightAware Approximate
Thu 07:08:00 PM 37.1992 -95.6465 10° North  Level FlightAware Approximate
Thu 07:09:00 PM 37.3048 -95.6230 10° North  Level FlightAware Approximate
Thu 07:10:00 PM 37.4111 -95.6056 North  Level FlightAware Approximate
Thu 07:11:00 PM 37.5177 -95.5903 North  Level FlightAware Approximate
Thu 07:12:00 PM 37.6246 -95.5833 North  Level FlightAware Approximate
Thu 07:13:00 PM 37.7312 -95.5709 North  Level FlightAware Approximate
Thu 07:14:00 PM 37.8377 -95.5545 North  Level FlightAware Approximate
Thu 07:15:00 PM 37.9440 -95.5371 North  Level FlightAware Approximate
Thu 07:16:00 PM 38.0504 -95.5194 North  Level FlightAware Approximate
Thu 07:17:00 PM 38.1568 -95.5028 North  Level FlightAware Approximate
Thu 07:18:00 PM 38.2633 -95.4864 North  Level FlightAware Approximate
Thu 07:19:00 PM 38.3698 -95.4710 North  Level FlightAware Approximate
Thu 07:20:00 PM 38.4764 -95.4558 North  Level FlightAware Approximate
Thu 07:21:00 PM 38.5830 -95.4412 North  Level FlightAware Approximate
Thu 07:22:00 PM 38.6897 -95.4269 North  Level FlightAware Approximate
Thu 07:23:00 PM 38.7965 -95.4167 North  Level FlightAware Approximate
Thu 07:24:00 PM 38.8673 -95.3153 57° Northeast  Level FlightAware Approximate
Thu 07:25:00 PM 38.9393 -95.2144 46° Northeast  Level FlightAware Approximate
Thu 07:26:00 PM 39.0107 -95.1120 57° Northeast  Level FlightAware Approximate
Thu 07:27:00 PM 39.0796 -95.0072 45° Northeast  Level FlightAware Approximate
Thu 07:28:00 PM 39.1542 -94.9082 57° Northeast  Level FlightAware Approximate
Thu 07:29:00 PM 39.2246 -94.8062 46° Northeast  Level FlightAware Approximate
Thu 07:30:00 PM 39.2833 -94.7000 67° East  Level FlightAware Approximate
Thu 07:31:00 PM 39.2976 -94.7139 67° East  Level Estimated
Thu 07:32:00 PM 39.2976 -94.7139 67° East  Level Estimated
Thu 07:33:00 PM 39.2976 -94.7139 67° East  Level Estimated

Login

Don't have an account? Register now (free) for customized features, flight alerts, and more!